sensor_id;sensor_type;location;lat;lon;timestamp;pressure;altitude;pressure_sealevel;temperature;humidity
61573;BME280;47465;43.094;12.434;2023-03-04T00:01:13;98637.25;;;6.12;93.28
61573;BME280;47465;43.094;12.434;2023-03-04T00:03:40;98607.56;;;5.85;93.98
61573;BME280;47465;43.094;12.434;2023-03-04T00:06:06;98629.44;;;6.01;94.02
61573;BME280;47465;43.094;12.434;2023-03-04T00:08:32;98644.25;;;6.11;93.81
61573;BME280;47465;43.094;12.434;2023-03-04T00:10:58;98625.00;;;6.05;93.50
61573;BME280;47465;43.094;12.434;2023-03-04T00:13:26;98617.09;;;6.03;93.52
61573;BME280;47465;43.094;12.434;2023-03-04T00:15:52;98624.16;;;6.01;93.70
61573;BME280;47465;43.094;12.434;2023-03-04T00:18:18;98631.06;;;6.13;93.79
61573;BME280;47465;43.094;12.434;2023-03-04T00:20:45;98630.19;;;6.14;93.38
61573;BME280;47465;43.094;12.434;2023-03-04T00:23:11;98629.09;;;6.30;93.21
61573;BME280;47465;43.094;12.434;2023-03-04T00:25:37;98639.47;;;6.46;92.54
61573;BME280;47465;43.094;12.434;2023-03-04T00:28:04;98641.13;;;6.54;91.55
61573;BME280;47465;43.094;12.434;2023-03-04T00:30:31;98619.97;;;6.56;91.06
61573;BME280;47465;43.094;12.434;2023-03-04T00:32:57;98640.94;;;6.68;90.58
61573;BME280;47465;43.094;12.434;2023-03-04T00:35:23;98630.53;;;6.54;91.04
61573;BME280;47465;43.094;12.434;2023-03-04T00:37:49;98647.19;;;6.61;90.74
61573;BME280;47465;43.094;12.434;2023-03-04T00:40:15;98628.88;;;6.47;90.76
61573;BME280;47465;43.094;12.434;2023-03-04T00:42:41;98614.03;;;6.37;90.62
61573;BME280;47465;43.094;12.434;2023-03-04T00:45:08;98611.41;;;6.37;90.92
61573;BME280;47465;43.094;12.434;2023-03-04T00:47:35;98637.78;;;6.40;91.31
61573;BME280;47465;43.094;12.434;2023-03-04T00:50:01;98610.63;;;6.29;91.09
61573;BME280;47465;43.094;12.434;2023-03-04T00:52:27;98629.88;;;6.38;91.54
61573;BME280;47465;43.094;12.434;2023-03-04T00:54:53;98613.19;;;6.35;91.30
61573;BME280;47465;43.094;12.434;2023-03-04T00:57:19;98614.88;;;6.41;90.71
61573;BME280;47465;43.094;12.434;2023-03-04T00:59:45;98617.47;;;6.47;90.22
61573;BME280;47465;43.094;12.434;2023-03-04T01:02:11;98591.19;;;6.34;90.20
61573;BME280;47465;43.094;12.434;2023-03-04T01:04:38;98594.75;;;6.32;90.57
61573;BME280;47465;43.094;12.434;2023-03-04T01:07:06;98600.91;;;6.32;91.16
61573;BME280;47465;43.094;12.434;2023-03-04T01:09:32;98602.66;;;6.33;91.16
61573;BME280;47465;43.094;12.434;2023-03-04T01:11:58;98613.25;;;6.30;91.63
61573;BME280;47465;43.094;12.434;2023-03-04T01:14:24;98584.31;;;6.21;91.43
61573;BME280;47465;43.094;12.434;2023-03-04T01:16:49;98605.31;;;6.30;91.61
61573;BME280;47465;43.094;12.434;2023-03-04T01:19:16;98599.25;;;6.22;91.64
61573;BME280;47465;43.094;12.434;2023-03-04T01:21:43;98590.47;;;6.20;92.04
61573;BME280;47465;43.094;12.434;2023-03-04T01:24:09;98611.50;;;6.29;91.96
61573;BME280;47465;43.094;12.434;2023-03-04T01:26:35;98612.44;;;6.27;92.53
61573;BME280;47465;43.094;12.434;2023-03-04T01:29:01;98578.44;;;5.99;93.02
61573;BME280;47465;43.094;12.434;2023-03-04T01:31:27;98602.88;;;6.13;93.22
61573;BME280;47465;43.094;12.434;2023-03-04T01:33:53;98594.16;;;6.10;93.26
61573;BME280;47465;43.094;12.434;2023-03-04T01:36:19;98610.72;;;6.21;93.34
61573;BME280;47465;43.094;12.434;2023-03-04T01:38:46;98594.09;;;6.13;93.71
61573;BME280;47465;43.094;12.434;2023-03-04T01:41:13;98576.72;;;5.95;93.90
61573;BME280;47465;43.094;12.434;2023-03-04T01:43:42;98601.94;;;6.19;93.37
61573;BME280;47465;43.094;12.434;2023-03-04T01:46:09;98600.25;;;6.15;93.80
61573;BME280;47465;43.094;12.434;2023-03-04T01:48:37;98563.56;;;5.90;93.78
61573;BME280;47465;43.094;12.434;2023-03-04T01:51:04;98606.44;;;6.12;94.00
61573;BME280;47465;43.094;12.434;2023-03-04T01:53:31;98572.38;;;5.86;94.23
61573;BME280;47465;43.094;12.434;2023-03-04T01:56:11;98591.72;;;5.90;94.54
61573;BME280;47465;43.094;12.434;2023-03-04T01:58:37;98599.56;;;5.96;94.72
61573;BME280;47465;43.094;12.434;2023-03-04T02:01:03;98586.38;;;5.93;94.84
61573;BME280;47465;43.094;12.434;2023-03-04T02:03:29;98592.59;;;5.90;94.75
61573;BME280;47465;43.094;12.434;2023-03-04T02:05:55;98582.16;;;5.80;94.84
61573;BME280;47465;43.094;12.434;2023-03-04T02:08:22;98578.66;;;5.76;95.19
61573;BME280;47465;43.094;12.434;2023-03-04T02:10:50;98556.84;;;5.57;95.74
61573;BME280;47465;43.094;12.434;2023-03-04T02:13:17;98594.59;;;5.68;96.66
61573;BME280;47465;43.094;12.434;2023-03-04T02:15:44;98577.09;;;5.58;96.93
61573;BME280;47465;43.094;12.434;2023-03-04T02:18:14;98579.72;;;5.56;96.56
61573;BME280;47465;43.094;12.434;2023-03-04T02:20:44;98578.81;;;5.61;96.48
61573;BME280;47465;43.094;12.434;2023-03-04T02:23:16;98574.44;;;5.58;96.50
61573;BME280;47465;43.094;12.434;2023-03-04T02:25:47;98584.09;;;5.61;96.95
61573;BME280;47465;43.094;12.434;2023-03-04T02:28:15;98585.00;;;5.60;97.05
61573;BME280;47465;43.094;12.434;2023-03-04T02:30:41;98548.28;;;5.37;96.76
61573;BME280;47465;43.094;12.434;2023-03-04T02:33:13;98579.88;;;5.41;98.50
61573;BME280;47465;43.094;12.434;2023-03-04T02:35:40;98578.06;;;5.46;98.33
61573;BME280;47465;43.094;12.434;2023-03-04T02:38:06;98567.63;;;5.37;98.18
61573;BME280;47465;43.094;12.434;2023-03-04T02:40:34;98553.59;;;5.32;97.38
61573;BME280;47465;43.094;12.434;2023-03-04T02:43:00;98564.97;;;5.35;98.04
61573;BME280;47465;43.094;12.434;2023-03-04T02:45:34;98573.75;;;5.41;98.63
61573;BME280;47465;43.094;12.434;2023-03-04T02:48:01;98579.88;;;5.43;98.08
61573;BME280;47465;43.094;12.434;2023-03-04T02:50:29;98575.63;;;5.26;98.89
61573;BME280;47465;43.094;12.434;2023-03-04T02:52:57;98564.34;;;5.07;100.00
61573;BME280;47465;43.094;12.434;2023-03-04T02:55:23;98539.81;;;5.01;100.00
61573;BME280;47465;43.094;12.434;2023-03-04T02:57:50;98559.09;;;5.07;100.00
61573;BME280;47465;43.094;12.434;2023-03-04T03:00:16;98547.72;;;5.04;99.38
61573;BME280;47465;43.094;12.434;2023-03-04T03:02:44;98565.22;;;5.14;100.00
61573;BME280;47465;43.094;12.434;2023-03-04T03:05:11;98538.91;;;5.06;100.00
61573;BME280;47465;43.094;12.434;2023-03-04T03:07:37;98538.75;;;5.20;98.94
61573;BME280;47465;43.094;12.434;2023-03-04T03:10:03;98578.06;;;5.49;98.62
61573;BME280;47465;43.094;12.434;2023-03-04T03:12:29;98566.69;;;5.43;98.12
61573;BME280;47465;43.094;12.434;2023-03-04T03:14:55;98556.16;;;5.40;98.22
61573;BME280;47465;43.094;12.434;2023-03-04T03:17:21;98570.94;;;5.56;97.79
61573;BME280;47465;43.094;12.434;2023-03-04T03:19:49;98576.13;;;5.68;97.08
61573;BME280;47465;43.094;12.434;2023-03-04T03:22:15;98569.06;;;5.69;97.14
61573;BME280;47465;43.094;12.434;2023-03-04T03:24:41;98551.56;;;5.62;97.02
61573;BME280;47465;43.094;12.434;2023-03-04T03:27:07;98574.16;;;5.86;96.41
61573;BME280;47465;43.094;12.434;2023-03-04T03:29:33;98565.41;;;5.81;96.50
61573;BME280;47465;43.094;12.434;2023-03-04T03:31:58;98563.66;;;5.80;96.15
61573;BME280;47465;43.094;12.434;2023-03-04T03:34:24;98567.13;;;5.86;95.91
61573;BME280;47465;43.094;12.434;2023-03-04T03:36:52;98544.41;;;5.73;95.59
61573;BME280;47465;43.094;12.434;2023-03-04T03:39:17;98534.72;;;5.72;95.39
61573;BME280;47465;43.094;12.434;2023-03-04T03:41:43;98556.50;;;5.89;95.33
61573;BME280;47465;43.094;12.434;2023-03-04T03:44:09;98561.84;;;5.86;95.33
61573;BME280;47465;43.094;12.434;2023-03-04T03:46:35;98564.47;;;5.88;95.66
61573;BME280;47465;43.094;12.434;2023-03-04T03:49:01;98560.13;;;5.81;96.08
61573;BME280;47465;43.094;12.434;2023-03-04T03:51:27;98568.03;;;5.82;95.84
61573;BME280;47465;43.094;12.434;2023-03-04T03:53:54;98552.31;;;5.71;96.16
61573;BME280;47465;43.094;12.434;2023-03-04T03:56:20;98563.63;;;5.81;95.83
61573;BME280;47465;43.094;12.434;2023-03-04T03:58:46;98562.75;;;5.82;95.98
61573;BME280;47465;43.094;12.434;2023-03-04T04:01:12;98548.81;;;5.69;96.00
61573;BME280;47465;43.094;12.434;2023-03-04T04:03:38;98535.75;;;5.59;96.33
61573;BME280;47465;43.094;12.434;2023-03-04T04:06:04;98566.44;;;5.66;96.59
61573;BME280;47465;43.094;12.434;2023-03-04T04:08:30;98571.72;;;5.67;96.75
61573;BME280;47465;43.094;12.434;2023-03-04T04:10:59;98573.47;;;5.67;96.34
61573;BME280;47465;43.094;12.434;2023-03-04T04:13:25;98550.78;;;5.52;96.95
61573;BME280;47465;43.094;12.434;2023-03-04T04:15:51;98549.91;;;5.48;96.54
61573;BME280;47465;43.094;12.434;2023-03-04T04:18:16;98552.66;;;5.42;97.00
61573;BME280;47465;43.094;12.434;2023-03-04T04:20:44;98573.63;;;5.51;97.00
61573;BME280;47465;43.094;12.434;2023-03-04T04:23:10;98566.66;;;5.44;97.03
61573;BME280;47465;43.094;12.434;2023-03-04T04:25:36;98554.31;;;5.46;96.63
61573;BME280;47465;43.094;12.434;2023-03-04T04:28:03;98571.81;;;5.56;96.40
61573;BME280;47465;43.094;12.434;2023-03-04T04:30:29;98559.59;;;5.51;96.43
61573;BME280;47465;43.094;12.434;2023-03-04T04:32:55;98582.25;;;5.67;95.90
61573;BME280;47465;43.094;12.434;2023-03-04T04:35:21;98545.56;;;5.46;96.10
61573;BME280;47465;43.094;12.434;2023-03-04T04:37:47;98581.41;;;5.64;95.84
61573;BME280;47465;43.094;12.434;2023-03-04T04:40:13;98563.06;;;5.53;96.55
61573;BME280;47465;43.094;12.434;2023-03-04T04:42:39;98560.41;;;5.58;95.74
61573;BME280;47465;43.094;12.434;2023-03-04T04:45:08;98562.06;;;5.65;95.60
61573;BME280;47465;43.094;12.434;2023-03-04T04:47:34;98564.53;;;5.80;94.80
61573;BME280;47465;43.094;12.434;2023-03-04T04:50:00;98572.28;;;5.99;93.65
61573;BME280;47465;43.094;12.434;2023-03-04T04:52:25;98563.34;;;6.09;92.50
61573;BME280;47465;43.094;12.434;2023-03-04T04:54:51;98555.44;;;6.09;91.88
61573;BME280;47465;43.094;12.434;2023-03-04T04:57:17;98565.84;;;6.23;91.15
61573;BME280;47465;43.094;12.434;2023-03-04T04:59:43;98546.56;;;6.13;91.36
61573;BME280;47465;43.094;12.434;2023-03-04T05:02:10;98562.28;;;6.25;91.15
61573;BME280;47465;43.094;12.434;2023-03-04T05:04:36;98579.78;;;6.31;91.72
61573;BME280;47465;43.094;12.434;2023-03-04T05:07:02;98564.00;;;6.28;91.30
61573;BME280;47465;43.094;12.434;2023-03-04T05:09:28;98576.34;;;6.26;91.66
61573;BME280;47465;43.094;12.434;2023-03-04T05:11:53;98555.34;;;6.16;92.41
61573;BME280;47465;43.094;12.434;2023-03-04T05:14:19;98530.88;;;6.02;92.54
61573;BME280;47465;43.094;12.434;2023-03-04T05:16:45;98557.13;;;6.13;93.21
61573;BME280;47465;43.094;12.434;2023-03-04T05:19:12;98523.94;;;5.95;93.48
61573;BME280;47465;43.094;12.434;2023-03-04T05:21:38;98569.41;;;6.19;93.64
61573;BME280;47465;43.094;12.434;2023-03-04T05:24:05;98575.59;;;6.16;93.97
61573;BME280;47465;43.094;12.434;2023-03-04T05:26:30;98538.88;;;5.91;94.46
61573;BME280;47465;43.094;12.434;2023-03-04T05:28:56;98559.88;;;6.05;94.88
61573;BME280;47465;43.094;12.434;2023-03-04T05:31:22;98563.31;;;6.12;94.90
61573;BME280;47465;43.094;12.434;2023-03-04T05:33:48;98541.50;;;5.97;95.39
61573;BME280;47465;43.094;12.434;2023-03-04T05:36:15;98535.38;;;5.91;95.53
61573;BME280;47465;43.094;12.434;2023-03-04T05:38:41;98558.13;;;6.04;95.54
61573;BME280;47465;43.094;12.434;2023-03-04T05:41:07;98549.34;;;6.04;96.08
61573;BME280;47465;43.094;12.434;2023-03-04T05:43:33;98553.75;;;6.03;95.86
61573;BME280;47465;43.094;12.434;2023-03-04T05:46:00;98548.53;;;5.97;95.85
61573;BME280;47465;43.094;12.434;2023-03-04T05:48:27;98576.47;;;6.15;96.00
61573;BME280;47465;43.094;12.434;2023-03-04T05:50:54;98574.69;;;6.17;95.79
61573;BME280;47465;43.094;12.434;2023-03-04T05:53:22;98578.19;;;6.19;96.05
61573;BME280;47465;43.094;12.434;2023-03-04T05:55:48;98543.22;;;6.02;95.55
61573;BME280;47465;43.094;12.434;2023-03-04T05:58:14;98555.47;;;6.07;95.61
61573;BME280;47465;43.094;12.434;2023-03-04T06:00:40;98585.97;;;6.28;94.78
61573;BME280;47465;43.094;12.434;2023-03-04T06:03:07;98589.47;;;6.33;94.78
61573;BME280;47465;43.094;12.434;2023-03-04T06:05:38;98599.91;;;6.43;94.96
61573;BME280;47465;43.094;12.434;2023-03-04T06:08:04;98576.19;;;6.38;94.11
61573;BME280;47465;43.094;12.434;2023-03-04T06:10:31;98580.53;;;6.42;94.10
61573;BME280;47465;43.094;12.434;2023-03-04T06:12:58;98565.56;;;6.43;93.60
61573;BME280;47465;43.094;12.434;2023-03-04T06:15:23;98561.00;;;6.52;92.66
61573;BME280;47465;43.094;12.434;2023-03-04T06:17:49;98573.03;;;6.73;92.16
61573;BME280;47465;43.094;12.434;2023-03-04T06:20:15;98579.84;;;6.90;91.40
61573;BME280;47465;43.094;12.434;2023-03-04T06:22:41;98563.09;;;6.89;90.37
61573;BME280;47465;43.094;12.434;2023-03-04T06:25:07;98582.13;;;7.13;89.98
61573;BME280;47465;43.094;12.434;2023-03-04T06:27:34;98584.75;;;7.14;89.99
61573;BME280;47465;43.094;12.434;2023-03-04T06:30:01;98569.91;;;7.04;89.24
61573;BME280;47465;43.094;12.434;2023-03-04T06:32:27;98591.75;;;7.18;89.39
61573;BME280;47465;43.094;12.434;2023-03-04T06:34:53;98598.75;;;7.19;89.30
61573;BME280;47465;43.094;12.434;2023-03-04T06:37:19;98557.63;;;7.03;89.02
61573;BME280;47465;43.094;12.434;2023-03-04T06:39:44;98579.38;;;7.20;88.68
61573;BME280;47465;43.094;12.434;2023-03-04T06:42:10;98591.63;;;7.25;88.35
61573;BME280;47465;43.094;12.434;2023-03-04T06:44:38;98569.75;;;7.13;88.52
61573;BME280;47465;43.094;12.434;2023-03-04T06:47:04;98593.34;;;7.29;87.81
61573;BME280;47465;43.094;12.434;2023-03-04T06:49:30;98598.63;;;7.29;87.77
61573;BME280;47465;43.094;12.434;2023-03-04T06:51:56;98598.50;;;7.35;87.47
61573;BME280;47465;43.094;12.434;2023-03-04T06:54:22;98613.28;;;7.48;87.39
61573;BME280;47465;43.094;12.434;2023-03-04T06:56:48;98588.84;;;7.34;86.64
61573;BME280;47465;43.094;12.434;2023-03-04T06:59:14;98608.78;;;7.53;86.55
61573;BME280;47465;43.094;12.434;2023-03-04T07:01:41;98594.72;;;7.50;85.93
61573;BME280;47465;43.094;12.434;2023-03-04T07:04:07;98601.78;;;7.49;86.66
61573;BME280;47465;43.094;12.434;2023-03-04T07:06:33;98601.88;;;7.46;86.15
61573;BME280;47465;43.094;12.434;2023-03-04T07:08:59;98614.25;;;7.43;86.06
61573;BME280;47465;43.094;12.434;2023-03-04T07:11:25;98604.72;;;7.34;86.31
61573;BME280;47465;43.094;12.434;2023-03-04T07:13:51;98629.22;;;7.44;86.56
61573;BME280;47465;43.094;12.434;2023-03-04T07:16:19;98625.69;;;7.45;85.45
61573;BME280;47465;43.094;12.434;2023-03-04T07:18:47;98635.34;;;7.47;85.43
61573;BME280;47465;43.094;12.434;2023-03-04T07:21:14;98647.47;;;7.60;84.67
61573;BME280;47465;43.094;12.434;2023-03-04T07:23:41;98635.88;;;7.68;84.59
61573;BME280;47465;43.094;12.434;2023-03-04T07:26:07;98650.59;;;7.82;84.98
61573;BME280;47465;43.094;12.434;2023-03-04T07:28:34;98646.03;;;7.91;83.13
61573;BME280;47465;43.094;12.434;2023-03-04T07:31:08;98614.50;;;7.78;82.34
61573;BME280;47465;43.094;12.434;2023-03-04T07:33:34;98624.97;;;7.85;83.35
61573;BME280;47465;43.094;12.434;2023-03-04T07:36:02;98602.75;;;7.93;82.04
61573;BME280;47465;43.094;12.434;2023-03-04T07:38:31;98617.59;;;8.02;81.17
61573;BME280;47465;43.094;12.434;2023-03-04T07:41:16;98620.41;;;7.94;81.47
61573;BME280;47465;43.094;12.434;2023-03-04T07:43:43;98655.91;;;8.29;80.17
61573;BME280;47465;43.094;12.434;2023-03-04T07:46:09;98608.69;;;8.06;80.32
61573;BME280;47465;43.094;12.434;2023-03-04T07:48:47;98638.16;;;8.34;80.53
61573;BME280;47465;43.094;12.434;2023-03-04T07:51:17;98607.50;;;8.21;80.20
61573;BME280;47465;43.094;12.434;2023-03-04T07:53:48;98608.16;;;8.32;80.11
61573;BME280;47465;43.094;12.434;2023-03-04T07:56:20;98616.75;;;8.47;78.99
61573;BME280;47465;43.094;12.434;2023-03-04T07:59:02;98620.06;;;8.56;77.91
61573;BME280;47465;43.094;12.434;2023-03-04T08:01:29;98615.66;;;8.57;77.13
61573;BME280;47465;43.094;12.434;2023-03-04T08:03:56;98628.44;;;8.78;76.54
61573;BME280;47465;43.094;12.434;2023-03-04T08:06:25;98621.81;;;8.98;76.32
61573;BME280;47465;43.094;12.434;2023-03-04T08:08:57;98619.00;;;9.04;77.26
61573;BME280;47465;43.094;12.434;2023-03-04T08:11:24;98629.41;;;9.13;74.24
61573;BME280;47465;43.094;12.434;2023-03-04T08:13:52;98622.34;;;9.12;74.30
61573;BME280;47465;43.094;12.434;2023-03-04T08:16:28;98616.72;;;9.26;73.14
61573;BME280;47465;43.094;12.434;2023-03-04T08:18:55;98590.75;;;9.03;72.84
61573;BME280;47465;43.094;12.434;2023-03-04T08:21:24;98628.94;;;9.33;72.75
61573;BME280;47465;43.094;12.434;2023-03-04T08:23:53;98603.72;;;9.15;73.40
61573;BME280;47465;43.094;12.434;2023-03-04T08:26:22;98602.94;;;9.10;72.57
61573;BME280;47465;43.094;12.434;2023-03-04T08:28:54;98611.41;;;9.26;71.74
61573;BME280;47465;43.094;12.434;2023-03-04T08:31:21;98636.25;;;9.59;72.39
61573;BME280;47465;43.094;12.434;2023-03-04T08:33:50;98598.03;;;9.31;71.92
61573;BME280;47465;43.094;12.434;2023-03-04T08:36:25;98640.28;;;9.74;71.77
61573;BME280;47465;43.094;12.434;2023-03-04T08:38:54;98608.19;;;9.83;70.45
61573;BME280;47465;43.094;12.434;2023-03-04T08:41:20;98598.41;;;9.84;68.62
61573;BME280;47465;43.094;12.434;2023-03-04T08:43:51;98596.47;;;9.56;68.74
61573;BME280;47465;43.094;12.434;2023-03-04T08:46:30;98624.28;;;9.77;67.93
61573;BME280;47465;43.094;12.434;2023-03-04T08:48:57;98621.31;;;9.88;67.01
61573;BME280;47465;43.094;12.434;2023-03-04T08:51:24;98624.66;;;9.96;66.77
61573;BME280;47465;43.094;12.434;2023-03-04T08:53:50;98631.13;;;9.86;65.42
61573;BME280;47465;43.094;12.434;2023-03-04T08:56:17;98621.00;;;10.00;64.51
61573;BME280;47465;43.094;12.434;2023-03-04T08:58:43;98614.56;;;10.09;64.19
61573;BME280;47465;43.094;12.434;2023-03-04T09:01:10;98611.53;;;9.90;65.21
61573;BME280;47465;43.094;12.434;2023-03-04T09:03:36;98609.69;;;9.94;65.19
61573;BME280;47465;43.094;12.434;2023-03-04T09:06:05;98614.00;;;9.98;65.41
61573;BME280;47465;43.094;12.434;2023-03-04T09:08:33;98625.50;;;10.31;63.47
61573;BME280;47465;43.094;12.434;2023-03-04T09:11:02;98649.50;;;10.28;65.48
61573;BME280;47465;43.094;12.434;2023-03-04T09:13:29;98632.88;;;10.53;63.44
61573;BME280;47465;43.094;12.434;2023-03-04T09:15:56;98622.44;;;10.45;61.75
61573;BME280;47465;43.094;12.434;2023-03-04T09:18:23;98627.59;;;10.51;64.03
61573;BME280;47465;43.094;12.434;2023-03-04T09:20:50;98617.31;;;10.68;61.88
61573;BME280;47465;43.094;12.434;2023-03-04T09:23:16;98626.44;;;10.60;61.79
61573;BME280;47465;43.094;12.434;2023-03-04T09:25:47;98623.31;;;10.75;61.42
61573;BME280;47465;43.094;12.434;2023-03-04T09:28:14;98624.84;;;10.84;62.63
61573;BME280;47465;43.094;12.434;2023-03-04T09:30:41;98608.13;;;10.49;63.92
61573;BME280;47465;43.094;12.434;2023-03-04T09:33:07;98637.72;;;10.98;61.02
61573;BME280;47465;43.094;12.434;2023-03-04T09:35:32;98622.53;;;11.01;60.83
61573;BME280;47465;43.094;12.434;2023-03-04T09:37:58;98612.09;;;10.95;60.42
61573;BME280;47465;43.094;12.434;2023-03-04T09:40:26;98609.31;;;10.98;60.10
61573;BME280;47465;43.094;12.434;2023-03-04T09:42:56;98620.03;;;10.67;62.49
61573;BME280;47465;43.094;12.434;2023-03-04T09:45:28;98629.63;;;11.01;60.79
61573;BME280;47465;43.094;12.434;2023-03-04T09:47:56;98626.22;;;10.67;60.88
61573;BME280;47465;43.094;12.434;2023-03-04T09:50:22;98620.63;;;10.77;61.64
61573;BME280;47465;43.094;12.434;2023-03-04T09:52:57;98609.41;;;10.67;60.85
61573;BME280;47465;43.094;12.434;2023-03-04T09:55:33;98625.81;;;10.81;61.78
61573;BME280;47465;43.094;12.434;2023-03-04T09:58:05;98627.19;;;10.65;60.47
61573;BME280;47465;43.094;12.434;2023-03-04T10:00:35;98598.03;;;10.62;59.90
61573;BME280;47465;43.094;12.434;2023-03-04T10:03:10;98616.75;;;10.26;61.53
61573;BME280;47465;43.094;12.434;2023-03-04T10:05:41;98602.06;;;10.45;62.06
61573;BME280;47465;43.094;12.434;2023-03-04T10:08:35;98621.66;;;10.71;60.02
61573;BME280;47465;43.094;12.434;2023-03-04T10:11:07;98608.69;;;10.90;60.69
61573;BME280;47465;43.094;12.434;2023-03-04T10:13:42;98609.50;;;10.62;60.36
61573;BME280;47465;43.094;12.434;2023-03-04T10:16:13;98603.72;;;10.78;59.75
61573;BME280;47465;43.094;12.434;2023-03-04T10:18:45;98620.94;;;10.66;61.40
61573;BME280;47465;43.094;12.434;2023-03-04T10:21:21;98595.75;;;10.78;61.24
61573;BME280;47465;43.094;12.434;2023-03-04T10:23:48;98599.81;;;10.91;60.57
61573;BME280;47465;43.094;12.434;2023-03-04T10:26:17;98585.13;;;10.50;60.27
61573;BME280;47465;43.094;12.434;2023-03-04T10:28:47;98564.13;;;10.68;60.54
61573;BME280;47465;43.094;12.434;2023-03-04T10:31:18;98618.31;;;10.64;61.58
61573;BME280;47465;43.094;12.434;2023-03-04T10:33:46;98602.47;;;10.91;60.98
61573;BME280;47465;43.094;12.434;2023-03-04T10:36:27;98596.28;;;10.61;60.88
61573;BME280;47465;43.094;12.434;2023-03-04T10:39:00;98602.28;;;10.67;61.48
61573;BME280;47465;43.094;12.434;2023-03-04T10:41:28;98598.16;;;10.87;60.91
61573;BME280;47465;43.094;12.434;2023-03-04T10:44:02;98598.31;;;10.82;60.65
61573;BME280;47465;43.094;12.434;2023-03-04T10:46:28;98592.41;;;10.71;61.56
61573;BME280;47465;43.094;12.434;2023-03-04T10:48:55;98577.00;;;10.54;61.81
61573;BME280;47465;43.094;12.434;2023-03-04T10:51:22;98581.16;;;10.63;62.12
61573;BME280;47465;43.094;12.434;2023-03-04T10:53:51;98569.78;;;10.58;61.65
61573;BME280;47465;43.094;12.434;2023-03-04T10:56:31;98582.22;;;10.85;62.02
61573;BME280;47465;43.094;12.434;2023-03-04T10:59:28;98584.50;;;10.69;61.14
61573;BME280;47465;43.094;12.434;2023-03-04T11:01:56;98568.22;;;10.80;62.06
61573;BME280;47465;43.094;12.434;2023-03-04T11:04:23;98583.25;;;10.81;61.09
61573;BME280;47465;43.094;12.434;2023-03-04T11:06:50;98584.09;;;10.82;62.40
61573;BME280;47465;43.094;12.434;2023-03-04T11:09:21;98596.03;;;10.68;61.94
61573;BME280;47465;43.094;12.434;2023-03-04T11:11:49;98566.59;;;10.75;62.17
61573;BME280;47465;43.094;12.434;2023-03-04T11:14:21;98567.31;;;11.08;62.05
61573;BME280;47465;43.094;12.434;2023-03-04T11:16:54;98577.88;;;11.38;60.25
61573;BME280;47465;43.094;12.434;2023-03-04T11:19:22;98561.91;;;11.38;59.65
61573;BME280;47465;43.094;12.434;2023-03-04T11:21:50;98564.22;;;10.95;60.75
61573;BME280;47465;43.094;12.434;2023-03-04T11:24:38;98563.03;;;11.04;61.01
61573;BME280;47465;43.094;12.434;2023-03-04T11:27:15;98545.31;;;11.03;60.42
61573;BME280;47465;43.094;12.434;2023-03-04T11:29:45;98582.81;;;11.23;59.79
61573;BME280;47465;43.094;12.434;2023-03-04T11:32:18;98553.41;;;11.26;61.88
61573;BME280;47465;43.094;12.434;2023-03-04T11:34:49;98538.00;;;11.36;60.34
61573;BME280;47465;43.094;12.434;2023-03-04T11:37:23;98548.56;;;11.64;59.51
61573;BME280;47465;43.094;12.434;2023-03-04T11:39:56;98555.59;;;11.40;58.25
61573;BME280;47465;43.094;12.434;2023-03-04T11:42:30;98566.41;;;10.81;60.91
61573;BME280;47465;43.094;12.434;2023-03-04T11:44:58;98544.09;;;10.58;62.04
61573;BME280;47465;43.094;12.434;2023-03-04T11:47:49;98544.88;;;10.88;61.96
61573;BME280;47465;43.094;12.434;2023-03-04T11:50:36;98542.53;;;10.79;62.11
61573;BME280;47465;43.094;12.434;2023-03-04T11:53:28;98545.44;;;11.00;60.79
61573;BME280;47465;43.094;12.434;2023-03-04T11:56:09;98528.28;;;11.08;61.30
61573;BME280;47465;43.094;12.434;2023-03-04T12:01:36;98513.00;;;11.15;60.56
61573;BME280;47465;43.094;12.434;2023-03-04T12:04:36;98500.28;;;10.97;60.38
61573;BME280;47465;43.094;12.434;2023-03-04T12:07:17;98496.38;;;11.08;60.19
61573;BME280;47465;43.094;12.434;2023-03-04T12:09:55;98497.22;;;11.09;59.17
61573;BME280;47465;43.094;12.434;2023-03-04T12:12:38;98496.69;;;11.24;58.74
61573;BME280;47465;43.094;12.434;2023-03-04T12:15:14;98477.47;;;11.16;59.33
61573;BME280;47465;43.094;12.434;2023-03-04T12:18:09;98496.34;;;11.35;58.93
61573;BME280;47465;43.094;12.434;2023-03-04T12:21:00;98469.13;;;11.00;58.06
61573;BME280;47465;43.094;12.434;2023-03-04T12:24:00;98507.88;;;11.34;58.45
61573;BME280;47465;43.094;12.434;2023-03-04T12:26:38;98475.00;;;11.37;58.83
61573;BME280;47465;43.094;12.434;2023-03-04T12:29:12;98475.09;;;11.34;57.08
61573;BME280;47465;43.094;12.434;2023-03-04T12:31:40;98456.22;;;11.40;56.07
61573;BME280;47465;43.094;12.434;2023-03-04T12:34:37;98465.84;;;11.19;57.01
61573;BME280;47465;43.094;12.434;2023-03-04T12:37:24;98457.31;;;11.34;56.11
61573;BME280;47465;43.094;12.434;2023-03-04T12:40:14;98465.25;;;11.36;58.08
61573;BME280;47465;43.094;12.434;2023-03-04T12:42:55;98457.84;;;11.19;58.36
61573;BME280;47465;43.094;12.434;2023-03-04T12:45:32;98464.38;;;11.35;59.02
61573;BME280;47465;43.094;12.434;2023-03-04T12:48:05;98463.19;;;11.44;58.84
61573;BME280;47465;43.094;12.434;2023-03-04T12:50:41;98443.25;;;11.30;58.06
61573;BME280;47465;43.094;12.434;2023-03-04T12:53:20;98445.72;;;11.37;59.20
61573;BME280;47465;43.094;12.434;2023-03-04T12:55:55;98438.53;;;11.39;58.32
61573;BME280;47465;43.094;12.434;2023-03-04T12:58:24;98451.22;;;11.56;57.33
61573;BME280;47465;43.094;12.434;2023-03-04T13:00:57;98429.19;;;11.52;57.26
61573;BME280;47465;43.094;12.434;2023-03-04T13:03:31;98419.91;;;11.39;57.12
61573;BME280;47465;43.094;12.434;2023-03-04T13:06:14;98452.31;;;11.25;58.14
61573;BME280;47465;43.094;12.434;2023-03-04T13:08:57;98424.47;;;11.35;58.84
61573;BME280;47465;43.094;12.434;2023-03-04T13:11:44;98425.09;;;11.42;58.15